sensor_id;sensor_type;location;lat;lon;timestamp;pressure;altitude;pressure_sealevel;temperature;humidity
5913;BME280;2982;42.684;23.356;2023-10-13T00:00:41;95408.16;;;10.04;100.00
5913;BME280;2982;42.684;23.356;2023-10-13T00:03:07;95396.19;;;9.87;100.00
5913;BME280;2982;42.684;23.356;2023-10-13T00:05:33;95333.38;;;9.53;100.00
5913;BME280;2982;42.684;23.356;2023-10-13T00:07:59;95337.81;;;9.48;100.00
5913;BME280;2982;42.684;23.356;2023-10-13T00:10:25;95381.72;;;9.89;100.00
5913;BME280;2982;42.684;23.356;2023-10-13T00:12:50;95136.19;;;8.43;100.00
5913;BME280;2982;42.684;23.356;2023-10-13T00:15:17;95391.81;;;9.91;100.00
5913;BME280;2982;42.684;23.356;2023-10-13T00:17:42;95214.97;;;8.96;100.00
5913;BME280;2982;42.684;23.356;2023-10-13T00:20:08;94960.34;;;6.87;100.00
5913;BME280;2982;42.684;23.356;2023-10-13T00:22:33;95427.72;;;10.02;100.00
5913;BME280;2982;42.684;23.356;2023-10-13T00:24:58;95251.28;;;9.17;100.00
5913;BME280;2982;42.684;23.356;2023-10-13T00:27:24;95131.38;;;8.37;100.00
5913;BME280;2982;42.684;23.356;2023-10-13T00:29:51;95013.72;;;7.65;100.00
5913;BME280;2982;42.684;23.356;2023-10-13T00:32:16;95268.50;;;9.09;100.00
5913;BME280;2982;42.684;23.356;2023-10-13T00:34:41;95001.81;;;7.46;100.00
5913;BME280;2982;42.684;23.356;2023-10-13T00:37:07;95280.81;;;9.18;100.00
5913;BME280;2982;42.684;23.356;2023-10-13T00:39:32;95203.59;;;8.66;100.00
5913;BME280;2982;42.684;23.356;2023-10-13T00:41:57;95015.38;;;7.44;100.00
5913;BME280;2982;42.684;23.356;2023-10-13T00:44:23;95300.19;;;9.19;100.00
5913;BME280;2982;42.684;23.356;2023-10-13T00:46:48;94787.69;;;5.59;100.00
5913;BME280;2982;42.684;23.356;2023-10-13T00:49:14;94709.44;;;5.17;100.00
5913;BME280;2982;42.684;23.356;2023-10-13T00:51:39;94621.84;;;4.80;100.00
5913;BME280;2982;42.684;23.356;2023-10-13T00:54:06;95145.34;;;8.04;100.00
5913;BME280;2982;42.684;23.356;2023-10-13T00:56:32;95205.38;;;7.98;100.00
5913;BME280;2982;42.684;23.356;2023-10-13T00:58:57;94670.41;;;5.05;100.00
5913;BME280;2982;42.684;23.356;2023-10-13T01:01:23;94968.75;;;6.87;100.00
5913;BME280;2982;42.684;23.356;2023-10-13T01:03:53;95080.38;;;7.62;100.00
5913;BME280;2982;42.684;23.356;2023-10-13T01:06:18;94645.75;;;4.67;100.00
5913;BME280;2982;42.684;23.356;2023-10-13T01:08:47;94703.78;;;5.10;100.00
5913;BME280;2982;42.684;23.356;2023-10-13T01:11:13;95299.22;;;8.59;100.00
5913;BME280;2982;42.684;23.356;2023-10-13T01:13:38;94897.19;;;6.22;100.00
5913;BME280;2982;42.684;23.356;2023-10-13T01:16:04;94559.97;;;4.28;100.00
5913;BME280;2982;42.684;23.356;2023-10-13T01:18:29;94656.50;;;4.72;100.00
5913;BME280;2982;42.684;23.356;2023-10-13T01:20:55;94728.53;;;4.74;100.00
5913;BME280;2982;42.684;23.356;2023-10-13T01:23:20;94659.56;;;4.57;100.00
5913;BME280;2982;42.684;23.356;2023-10-13T01:25:47;94689.44;;;4.66;100.00
5913;BME280;2982;42.684;23.356;2023-10-13T01:28:12;95159.88;;;7.55;100.00
5913;BME280;2982;42.684;23.356;2023-10-13T01:30:38;94652.25;;;4.74;100.00
5913;BME280;2982;42.684;23.356;2023-10-13T01:33:03;94658.22;;;4.47;100.00
5913;BME280;2982;42.684;23.356;2023-10-13T01:35:29;94678.41;;;4.68;100.00
5913;BME280;2982;42.684;23.356;2023-10-13T01:37:54;94702.28;;;4.81;100.00
5913;BME280;2982;42.684;23.356;2023-10-13T01:40:20;94694.19;;;4.73;100.00
5913;BME280;2982;42.684;23.356;2023-10-13T01:42:46;94731.28;;;4.67;100.00
5913;BME280;2982;42.684;23.356;2023-10-13T01:45:12;95418.44;;;9.40;100.00
5913;BME280;2982;42.684;23.356;2023-10-13T01:47:37;95422.69;;;9.40;100.00
5913;BME280;2982;42.684;23.356;2023-10-13T01:50:03;94561.59;;;4.04;100.00
5913;BME280;2982;42.684;23.356;2023-10-13T01:52:28;94651.03;;;4.36;100.00
5913;BME280;2982;42.684;23.356;2023-10-13T01:54:54;94653.94;;;4.24;100.00
5913;BME280;2982;42.684;23.356;2023-10-13T01:57:19;94810.50;;;5.31;100.00
5913;BME280;2982;42.684;23.356;2023-10-13T01:59:46;94639.34;;;4.09;100.00
5913;BME280;2982;42.684;23.356;2023-10-13T02:02:13;95416.16;;;9.34;100.00
5913;BME280;2982;42.684;23.356;2023-10-13T02:04:42;94502.84;;;3.59;100.00
5913;BME280;2982;42.684;23.356;2023-10-13T02:07:09;94675.41;;;4.59;100.00
5913;BME280;2982;42.684;23.356;2023-10-13T02:09:34;94713.66;;;4.68;100.00
5913;BME280;2982;42.684;23.356;2023-10-13T02:12:00;94654.31;;;4.12;100.00
5913;BME280;2982;42.684;23.356;2023-10-13T02:14:25;95197.16;;;7.93;100.00
5913;BME280;2982;42.684;23.356;2023-10-13T02:16:51;94863.03;;;5.65;100.00
5913;BME280;2982;42.684;23.356;2023-10-13T02:19:17;94680.72;;;4.50;100.00
5913;BME280;2982;42.684;23.356;2023-10-13T02:21:42;95192.78;;;7.53;100.00
5913;BME280;2982;42.684;23.356;2023-10-13T02:24:08;95104.75;;;6.96;100.00
5913;BME280;2982;42.684;23.356;2023-10-13T02:26:34;94685.31;;;4.38;100.00
5913;BME280;2982;42.684;23.356;2023-10-13T02:29:01;94705.22;;;4.94;100.00
5913;BME280;2982;42.684;23.356;2023-10-13T02:31:29;94838.78;;;5.39;100.00
5913;BME280;2982;42.684;23.356;2023-10-13T02:33:55;95496.47;;;9.12;100.00
5913;BME280;2982;42.684;23.356;2023-10-13T02:36:21;94741.78;;;4.55;100.00
5913;BME280;2982;42.684;23.356;2023-10-13T02:38:46;94885.78;;;5.88;100.00
5913;BME280;2982;42.684;23.356;2023-10-13T02:41:19;95068.50;;;6.99;100.00
5913;BME280;2982;42.684;23.356;2023-10-13T02:43:44;95337.88;;;8.19;100.00
5913;BME280;2982;42.684;23.356;2023-10-13T02:46:10;94955.69;;;5.83;100.00
5913;BME280;2982;42.684;23.356;2023-10-13T02:48:35;94585.28;;;3.72;100.00
5913;BME280;2982;42.684;23.356;2023-10-13T02:51:01;94989.41;;;5.79;100.00
5913;BME280;2982;42.684;23.356;2023-10-13T02:53:26;94727.56;;;4.27;100.00
5913;BME280;2982;42.684;23.356;2023-10-13T02:55:55;95046.34;;;6.36;100.00
5913;BME280;2982;42.684;23.356;2023-10-13T02:58:21;95459.94;;;8.96;100.00
5913;BME280;2982;42.684;23.356;2023-10-13T03:00:46;95149.75;;;6.62;100.00
5913;BME280;2982;42.684;23.356;2023-10-13T03:03:12;94774.38;;;4.31;100.00
5913;BME280;2982;42.684;23.356;2023-10-13T03:05:38;95036.72;;;5.97;100.00
5913;BME280;2982;42.684;23.356;2023-10-13T03:08:03;95472.88;;;8.88;100.00
5913;BME280;2982;42.684;23.356;2023-10-13T03:10:29;94710.44;;;4.12;100.00
5913;BME280;2982;42.684;23.356;2023-10-13T03:12:55;95063.19;;;6.10;100.00
5913;BME280;2982;42.684;23.356;2023-10-13T03:15:20;95413.84;;;8.86;100.00
5913;BME280;2982;42.684;23.356;2023-10-13T03:17:46;94812.09;;;4.58;100.00
5913;BME280;2982;42.684;23.356;2023-10-13T03:20:13;94535.84;;;3.46;100.00
5913;BME280;2982;42.684;23.356;2023-10-13T03:22:39;94549.94;;;3.50;100.00
5913;BME280;2982;42.684;23.356;2023-10-13T03:25:05;95443.53;;;8.82;100.00
5913;BME280;2982;42.684;23.356;2023-10-13T03:27:31;94528.44;;;3.17;100.00
5913;BME280;2982;42.684;23.356;2023-10-13T03:29:57;94586.94;;;3.45;100.00
5913;BME280;2982;42.684;23.356;2023-10-13T03:32:22;94998.59;;;5.55;100.00
5913;BME280;2982;42.684;23.356;2023-10-13T03:34:48;95014.50;;;6.08;100.00
5913;BME280;2982;42.684;23.356;2023-10-13T03:37:13;95447.44;;;8.68;100.00
5913;BME280;2982;42.684;23.356;2023-10-13T03:39:39;94626.25;;;3.46;100.00
5913;BME280;2982;42.684;23.356;2023-10-13T03:42:05;94774.72;;;4.72;100.00
5913;BME280;2982;42.684;23.356;2023-10-13T03:44:33;95065.50;;;6.88;100.00
5913;BME280;2982;42.684;23.356;2023-10-13T04:05:42;94668.69;;;4.59;100.00
5913;BME280;2982;42.684;23.356;2023-10-13T04:42:05;94740.03;;;4.81;100.00
5913;BME280;2982;42.684;23.356;2023-10-13T04:44:30;94822.50;;;4.73;100.00
5913;BME280;2982;42.684;23.356;2023-10-13T04:46:57;94791.03;;;4.62;100.00
5913;BME280;2982;42.684;23.356;2023-10-13T04:49:29;95002.63;;;5.87;100.00
5913;BME280;2982;42.684;23.356;2023-10-13T04:54:47;94678.78;;;4.07;100.00
5913;BME280;2982;42.684;23.356;2023-10-13T04:57:33;94893.53;;;5.08;100.00
5913;BME280;2982;42.684;23.356;2023-10-13T04:59:59;95433.03;;;8.92;100.00
5913;BME280;2982;42.684;23.356;2023-10-13T05:02:26;94666.09;;;3.85;100.00
5913;BME280;2982;42.684;23.356;2023-10-13T05:04:51;94621.75;;;3.56;100.00
5913;BME280;2982;42.684;23.356;2023-10-13T05:07:17;94829.31;;;5.21;100.00
5913;BME280;2982;42.684;23.356;2023-10-13T05:09:42;94950.56;;;6.11;100.00
5913;BME280;2982;42.684;23.356;2023-10-13T05:12:08;95008.41;;;6.39;100.00
5913;BME280;2982;42.684;23.356;2023-10-13T05:14:35;95033.56;;;6.87;100.00
5913;BME280;2982;42.684;23.356;2023-10-13T05:17:00;94647.94;;;4.53;100.00
5913;BME280;2982;42.684;23.356;2023-10-13T05:19:26;94916.28;;;6.29;100.00
5913;BME280;2982;42.684;23.356;2023-10-13T05:21:51;95464.56;;;10.31;100.00
5913;BME280;2982;42.684;23.356;2023-10-13T05:24:17;94734.44;;;5.91;100.00
5913;BME280;2982;42.684;23.356;2023-10-13T05:26:48;95009.63;;;8.43;100.00
5913;BME280;2982;42.684;23.356;2023-10-13T05:29:15;95296.06;;;10.32;100.00
5913;BME280;2982;42.684;23.356;2023-10-13T05:31:42;95474.78;;;12.10;100.00
5913;BME280;2982;42.684;23.356;2023-10-13T05:34:07;94782.66;;;7.87;100.00
5913;BME280;2982;42.684;23.356;2023-10-13T05:36:33;95211.25;;;11.22;100.00
5913;BME280;2982;42.684;23.356;2023-10-13T05:38:59;95412.94;;;12.88;100.00
5913;BME280;2982;42.684;23.356;2023-10-13T05:41:24;95090.28;;;10.85;100.00
5913;BME280;2982;42.684;23.356;2023-10-13T05:43:50;95273.28;;;12.32;100.00
5913;BME280;2982;42.684;23.356;2023-10-13T05:46:15;95010.22;;;10.78;100.00
5913;BME280;2982;42.684;23.356;2023-10-13T05:48:41;94914.75;;;10.08;100.00
5913;BME280;2982;42.684;23.356;2023-10-13T05:51:06;94801.69;;;9.54;100.00
5913;BME280;2982;42.684;23.356;2023-10-13T05:53:32;94797.13;;;9.10;100.00
5913;BME280;2982;42.684;23.356;2023-10-13T05:56:01;94864.88;;;9.24;100.00
5913;BME280;2982;42.684;23.356;2023-10-13T05:58:27;95510.31;;;13.43;100.00
5913;BME280;2982;42.684;23.356;2023-10-13T06:00:54;94860.69;;;9.06;100.00
5913;BME280;2982;42.684;23.356;2023-10-13T06:03:19;94788.53;;;8.44;100.00
5913;BME280;2982;42.684;23.356;2023-10-13T06:05:45;95330.31;;;11.81;100.00
5913;BME280;2982;42.684;23.356;2023-10-13T06:08:10;94847.22;;;8.69;100.00
5913;BME280;2982;42.684;23.356;2023-10-13T06:10:37;95020.53;;;9.90;100.00
5913;BME280;2982;42.684;23.356;2023-10-13T06:13:02;94871.69;;;8.70;100.00
5913;BME280;2982;42.684;23.356;2023-10-13T06:15:28;94766.09;;;7.99;100.00
5913;BME280;2982;42.684;23.356;2023-10-13T06:17:53;95533.22;;;12.96;100.00
5913;BME280;2982;42.684;23.356;2023-10-13T06:20:19;95132.00;;;10.12;100.00
5913;BME280;2982;42.684;23.356;2023-10-13T06:22:48;95147.06;;;10.15;100.00
5913;BME280;2982;42.684;23.356;2023-10-13T06:25:14;95263.91;;;11.53;100.00
5913;BME280;2982;42.684;23.356;2023-10-13T06:27:40;94834.59;;;8.87;100.00
5913;BME280;2982;42.684;23.356;2023-10-13T06:30:07;95020.63;;;9.89;100.00
5913;BME280;2982;42.684;23.356;2023-10-13T06:32:33;95044.41;;;9.86;100.00
5913;BME280;2982;42.684;23.356;2023-10-13T06:34:58;95515.97;;;13.33;100.00
5913;BME280;2982;42.684;23.356;2023-10-13T06:37:25;94867.56;;;9.04;100.00
5913;BME280;2982;42.684;23.356;2023-10-13T06:39:51;94796.97;;;8.79;100.00
5913;BME280;2982;42.684;23.356;2023-10-13T06:42:21;94947.19;;;9.86;100.00
5913;BME280;2982;42.684;23.356;2023-10-13T06:44:48;94946.38;;;9.85;100.00
5913;BME280;2982;42.684;23.356;2023-10-13T06:47:15;95020.03;;;10.35;100.00
5913;BME280;2982;42.684;23.356;2023-10-13T06:49:42;94837.81;;;9.42;100.00
5913;BME280;2982;42.684;23.356;2023-10-13T06:52:07;94760.69;;;9.13;100.00
5913;BME280;2982;42.684;23.356;2023-10-13T06:54:33;94808.78;;;9.47;100.00
5913;BME280;2982;42.684;23.356;2023-10-13T06:56:58;94870.88;;;9.73;100.00
5913;BME280;2982;42.684;23.356;2023-10-13T06:59:24;94813.72;;;9.50;100.00
5913;BME280;2982;42.684;23.356;2023-10-13T07:01:54;94927.38;;;10.42;100.00
5913;BME280;2982;42.684;23.356;2023-10-13T07:04:19;94805.00;;;9.71;100.00
5913;BME280;2982;42.684;23.356;2023-10-13T07:06:44;94948.91;;;10.68;100.00
5913;BME280;2982;42.684;23.356;2023-10-13T07:09:11;94849.16;;;10.18;100.00
5913;BME280;2982;42.684;23.356;2023-10-13T07:11:36;95172.91;;;12.36;100.00
5913;BME280;2982;42.684;23.356;2023-10-13T07:14:03;94808.47;;;10.35;100.00
5913;BME280;2982;42.684;23.356;2023-10-13T07:16:30;94988.75;;;11.60;100.00
5913;BME280;2982;42.684;23.356;2023-10-13T07:18:55;94904.53;;;11.35;100.00
5913;BME280;2982;42.684;23.356;2023-10-13T07:21:21;95187.50;;;12.78;100.00
5913;BME280;2982;42.684;23.356;2023-10-13T07:23:50;94811.69;;;10.84;100.00
5913;BME280;2982;42.684;23.356;2023-10-13T07:26:15;94945.88;;;11.68;100.00
5913;BME280;2982;42.684;23.356;2023-10-13T07:28:41;94948.16;;;11.88;100.00
5913;BME280;2982;42.684;23.356;2023-10-13T07:31:06;94923.34;;;12.06;100.00
5913;BME280;2982;42.684;23.356;2023-10-13T07:33:31;94824.94;;;11.63;100.00
5913;BME280;2982;42.684;23.356;2023-10-13T07:38:26;95176.13;;;14.24;100.00
5913;BME280;2982;42.684;23.356;2023-10-13T07:40:53;94825.97;;;12.17;100.00
5913;BME280;2982;42.684;23.356;2023-10-13T07:43:22;95535.13;;;17.00;100.00
5913;BME280;2982;42.684;23.356;2023-10-13T07:45:47;95151.41;;;14.51;100.00
5913;BME280;2982;42.684;23.356;2023-10-13T07:48:13;94789.09;;;12.36;100.00
5913;BME280;2982;42.684;23.356;2023-10-13T07:50:41;94820.31;;;12.40;100.00
5913;BME280;2982;42.684;23.356;2023-10-13T07:53:06;95144.88;;;14.60;100.00
5913;BME280;2982;42.684;23.356;2023-10-13T07:55:32;94927.00;;;13.53;100.00
5913;BME280;2982;42.684;23.356;2023-10-13T07:57:57;95190.75;;;15.13;100.00
5913;BME280;2982;42.684;23.356;2023-10-13T08:00:25;94998.69;;;14.28;100.00
5913;BME280;2982;42.684;23.356;2023-10-13T08:02:59;94989.47;;;14.39;100.00
5913;BME280;2982;42.684;23.356;2023-10-13T08:05:25;94921.16;;;14.03;100.00
5913;BME280;2982;42.684;23.356;2023-10-13T08:07:54;95291.44;;;16.51;100.00
5913;BME280;2982;42.684;23.356;2023-10-13T08:10:19;94758.03;;;13.10;100.00
5913;BME280;2982;42.684;23.356;2023-10-13T08:12:46;94791.84;;;13.77;100.00
5913;BME280;2982;42.684;23.356;2023-10-13T08:15:11;95146.09;;;16.28;100.00
5913;BME280;2982;42.684;23.356;2023-10-13T08:17:37;94806.06;;;14.30;100.00
5913;BME280;2982;42.684;23.356;2023-10-13T08:20:03;94947.59;;;15.15;100.00
5913;BME280;2982;42.684;23.356;2023-10-13T08:22:28;94957.41;;;15.21;100.00
5913;BME280;2982;42.684;23.356;2023-10-13T08:24:54;95533.41;;;19.01;100.00
5913;BME280;2982;42.684;23.356;2023-10-13T08:27:20;95493.63;;;19.05;100.00
5913;BME280;2982;42.684;23.356;2023-10-13T08:29:47;94931.50;;;15.25;100.00
5913;BME280;2982;42.684;23.356;2023-10-13T08:32:13;94915.34;;;14.88;100.00
5913;BME280;2982;42.684;23.356;2023-10-13T08:34:39;95537.28;;;18.95;100.00
5913;BME280;2982;42.684;23.356;2023-10-13T08:37:05;94995.88;;;15.79;100.00
5913;BME280;2982;42.684;23.356;2023-10-13T08:39:32;94975.81;;;15.62;100.00
5913;BME280;2982;42.684;23.356;2023-10-13T08:41:57;94919.19;;;15.89;100.00
5913;BME280;2982;42.684;23.356;2023-10-13T08:44:23;94769.47;;;14.90;99.53
5913;BME280;2982;42.684;23.356;2023-10-13T08:46:56;94801.25;;;15.44;99.10
5913;BME280;2982;42.684;23.356;2023-10-13T08:49:41;94879.03;;;15.90;97.33
5913;BME280;2982;42.684;23.356;2023-10-13T08:52:10;95051.50;;;16.82;97.49
5913;BME280;2982;42.684;23.356;2023-10-13T08:54:39;95492.72;;;19.71;99.96
5913;BME280;2982;42.684;23.356;2023-10-13T08:57:05;95079.56;;;16.61;99.10
5913;BME280;2982;42.684;23.356;2023-10-13T08:59:32;95222.28;;;17.99;99.63
5913;BME280;2982;42.684;23.356;2023-10-13T09:01:58;94751.66;;;14.77;99.65
5913;BME280;2982;42.684;23.356;2023-10-13T09:04:23;94938.72;;;16.47;99.99
5913;BME280;2982;42.684;23.356;2023-10-13T09:07:08;95492.31;;;20.07;100.00
5913;BME280;2982;42.684;23.356;2023-10-13T09:09:46;95481.78;;;20.31;98.35
5913;BME280;2982;42.684;23.356;2023-10-13T09:14:39;95185.94;;;18.89;94.39
5913;BME280;2982;42.684;23.356;2023-10-13T09:17:06;95021.78;;;18.10;91.23
5913;BME280;2982;42.684;23.356;2023-10-13T09:19:31;94871.22;;;17.55;89.62
5913;BME280;2982;42.684;23.356;2023-10-13T09:21:57;94768.13;;;17.18;85.93
5913;BME280;2982;42.684;23.356;2023-10-13T09:24:25;94823.69;;;17.40;85.98
5913;BME280;2982;42.684;23.356;2023-10-13T09:26:50;94782.22;;;17.65;84.13
5913;BME280;2982;42.684;23.356;2023-10-13T09:29:17;94873.09;;;18.76;82.01
5913;BME280;2982;42.684;23.356;2023-10-13T09:32:17;95245.72;;;21.52;79.93
5913;BME280;2982;42.684;23.356;2023-10-13T09:34:35;94895.09;;;18.99;77.39
5913;BME280;2982;42.684;23.356;2023-10-13T09:37:01;94902.47;;;19.32;76.91
5913;BME280;2982;42.684;23.356;2023-10-13T09:39:35;94797.69;;;19.04;74.62
5913;BME280;2982;42.684;23.356;2023-10-13T09:42:29;94888.09;;;19.11;75.64
5913;BME280;2982;42.684;23.356;2023-10-13T09:45:14;95196.19;;;21.57;77.58
5913;BME280;2982;42.684;23.356;2023-10-13T09:48:01;95233.78;;;21.88;75.28
5913;BME280;2982;42.684;23.356;2023-10-13T09:50:48;95203.19;;;21.83;74.00
5913;BME280;2982;42.684;23.356;2023-10-13T09:53:15;95475.09;;;23.20;73.92
5913;BME280;2982;42.684;23.356;2023-10-13T09:55:44;95206.25;;;21.69;75.08
5913;BME280;2982;42.684;23.356;2023-10-13T09:58:13;94965.06;;;19.73;74.23
5913;BME280;2982;42.684;23.356;2023-10-13T10:00:54;94787.00;;;18.80;74.65
5913;BME280;2982;42.684;23.356;2023-10-13T10:03:21;94839.03;;;19.12;74.88
5913;BME280;2982;42.684;23.356;2023-10-13T10:05:59;95158.28;;;21.75;72.42
5913;BME280;2982;42.684;23.356;2023-10-13T10:08:25;94986.16;;;20.53;73.53
5913;BME280;2982;42.684;23.356;2023-10-13T10:11:04;95223.03;;;22.47;71.75
5913;BME280;2982;42.684;23.356;2023-10-13T10:13:47;94730.31;;;19.28;70.77
5913;BME280;2982;42.684;23.356;2023-10-13T10:16:22;95041.97;;;21.47;69.82
5913;BME280;2982;42.684;23.356;2023-10-13T10:19:13;94857.56;;;20.49;63.50
5913;BME280;2982;42.684;23.356;2023-10-13T10:21:39;94813.13;;;20.18;62.00
5913;BME280;2982;42.684;23.356;2023-10-13T10:24:31;94906.47;;;21.05;61.66
5913;BME280;2982;42.684;23.356;2023-10-13T10:26:58;94876.19;;;21.25;59.55
5913;BME280;2982;42.684;23.356;2023-10-13T10:29:53;95425.72;;;25.05;62.05
5913;BME280;2982;42.684;23.356;2023-10-13T10:32:19;95160.72;;;23.71;60.58
5913;BME280;2982;42.684;23.356;2023-10-13T10:34:45;95069.72;;;23.22;55.48
5913;BME280;2982;42.684;23.356;2023-10-13T10:37:11;94692.50;;;20.92;54.55
5913;BME280;2982;42.684;23.356;2023-10-13T10:39:39;94724.91;;;20.69;54.74
5913;BME280;2982;42.684;23.356;2023-10-13T10:42:13;94802.38;;;21.40;53.89
5913;BME280;2982;42.684;23.356;2023-10-13T10:44:41;95187.66;;;24.12;53.99
5913;BME280;2982;42.684;23.356;2023-10-13T10:47:14;95462.56;;;25.51;52.42
5913;BME280;2982;42.684;23.356;2023-10-13T10:49:39;95447.16;;;25.57;50.91
5913;BME280;2982;42.684;23.356;2023-10-13T10:52:09;94774.63;;;21.24;52.20
5913;BME280;2982;42.684;23.356;2023-10-13T10:54:36;94873.16;;;22.00;51.76
5913;BME280;2982;42.684;23.356;2023-10-13T10:57:02;94940.84;;;22.39;53.38
5913;BME280;2982;42.684;23.356;2023-10-13T10:59:34;94890.28;;;22.01;51.85
5913;BME280;2982;42.684;23.356;2023-10-13T11:01:59;94744.53;;;21.15;52.16
5913;BME280;2982;42.684;23.356;2023-10-13T11:04:25;94902.47;;;22.09;51.91
5913;BME280;2982;42.684;23.356;2023-10-13T11:06:54;94801.44;;;21.67;52.46
5913;BME280;2982;42.684;23.356;2023-10-13T11:09:27;94771.72;;;21.09;52.70
5913;BME280;2982;42.684;23.356;2023-10-13T11:11:54;95127.06;;;23.79;53.92
5913;BME280;2982;42.684;23.356;2023-10-13T11:14:25;94991.97;;;22.89;52.36
5913;BME280;2982;42.684;23.356;2023-10-13T11:16:54;94735.38;;;21.21;51.32
5913;BME280;2982;42.684;23.356;2023-10-13T11:19:21;95374.56;;;25.30;50.99
5913;BME280;2982;42.684;23.356;2023-10-13T11:21:47;94993.25;;;22.85;51.54
5913;BME280;2982;42.684;23.356;2023-10-13T11:24:12;94779.13;;;21.83;51.31
5913;BME280;2982;42.684;23.356;2023-10-13T11:26:38;95100.28;;;24.21;51.12
5913;BME280;2982;42.684;23.356;2023-10-13T11:29:10;94781.94;;;22.24;49.27
5913;BME280;2982;42.684;23.356;2023-10-13T11:31:38;95158.59;;;24.67;47.90
5913;BME280;2982;42.684;23.356;2023-10-13T11:34:04;95357.22;;;26.36;47.02
5913;BME280;2982;42.684;23.356;2023-10-13T11:36:30;94951.94;;;23.59;46.49
5913;BME280;2982;42.684;23.356;2023-10-13T11:38:58;94776.31;;;22.28;46.58
5913;BME280;2982;42.684;23.356;2023-10-13T11:41:31;95412.91;;;25.94;45.16
5913;BME280;2982;42.684;23.356;2023-10-13T11:43:57;94811.22;;;22.24;45.28
5913;BME280;2982;42.684;23.356;2023-10-13T11:46:24;95376.75;;;25.99;45.04
5913;BME280;2982;42.684;23.356;2023-10-13T11:48:50;95140.72;;;24.64;45.89
5913;BME280;2982;42.684;23.356;2023-10-13T11:51:17;94747.38;;;22.41;47.08
5913;BME280;2982;42.684;23.356;2023-10-13T11:54:02;94761.50;;;22.13;45.31
5913;BME280;2982;42.684;23.356;2023-10-13T11:56:28;94857.41;;;22.45;45.15
5913;BME280;2982;42.684;23.356;2023-10-13T11:58:55;94918.03;;;23.02;45.53
5913;BME280;2982;42.684;23.356;2023-10-13T12:01:20;94719.53;;;21.93;45.25
5913;BME280;2982;42.684;23.356;2023-10-13T12:03:49;94698.97;;;21.58;45.36
5913;BME280;2982;42.684;23.356;2023-10-13T12:06:16;94762.91;;;21.99;45.94
5913;BME280;2982;42.684;23.356;2023-10-13T12:08:42;95125.97;;;24.72;45.58
5913;BME280;2982;42.684;23.356;2023-10-13T12:11:07;94686.31;;;21.80;45.71
5913;BME280;2982;42.684;23.356;2023-10-13T12:13:33;94991.38;;;24.11;45.57
5913;BME280;2982;42.684;23.356;2023-10-13T12:15:58;94767.00;;;22.52;48.17
5913;BME280;2982;42.684;23.356;2023-10-13T12:18:25;94772.66;;;22.47;46.61
5913;BME280;2982;42.684;23.356;2023-10-13T12:20:50;94669.63;;;21.67;45.21
5913;BME280;2982;42.684;23.356;2023-10-13T12:23:16;94769.63;;;22.18;45.73
5913;BME280;2982;42.684;23.356;2023-10-13T12:25:43;95118.66;;;24.43;45.59
5913;BME280;2982;42.684;23.356;2023-10-13T12:28:12;94720.28;;;21.85;46.33
5913;BME280;2982;42.684;23.356;2023-10-13T12:30:46;94750.28;;;22.38;46.02
5913;BME280;2982;42.684;23.356;2023-10-13T12:33:13;94732.78;;;22.24;47.33
5913;BME280;2982;42.684;23.356;2023-10-13T12:35:41;94808.69;;;22.74;46.97
5913;BME280;2982;42.684;23.356;2023-10-13T12:38:08;94922.88;;;23.47;46.95
5913;BME280;2982;42.684;23.356;2023-10-13T12:40:36;94748.47;;;22.72;46.36
5913;BME280;2982;42.684;23.356;2023-10-13T12:43:21;94773.28;;;22.49;45.00
5913;BME280;2982;42.684;23.356;2023-10-13T12:45:48;94738.97;;;22.39;45.94
5913;BME280;2982;42.684;23.356;2023-10-13T12:48:14;94715.84;;;22.46;46.16
5913;BME280;2982;42.684;23.356;2023-10-13T12:50:42;95308.06;;;26.16;47.33
5913;BME280;2982;42.684;23.356;2023-10-13T12:53:28;94781.78;;;22.67;46.31
5913;BME280;2982;42.684;23.356;2023-10-13T12:55:53;94736.66;;;22.28;44.91
5913;BME280;2982;42.684;23.356;2023-10-13T12:58:19;94757.44;;;22.44;45.91
5913;BME280;2982;42.684;23.356;2023-10-13T13:00:45;94798.84;;;22.86;45.25
5913;BME280;2982;42.684;23.356;2023-10-13T13:03:11;94567.13;;;21.41;45.48
5913;BME280;2982;42.684;23.356;2023-10-13T13:05:37;94772.69;;;22.63;45.06
5913;BME280;2982;42.684;23.356;2023-10-13T13:08:03;94920.31;;;23.55;44.33
5913;BME280;2982;42.684;23.356;2023-10-13T13:10:28;94647.84;;;21.69;44.59
5913;BME280;2982;42.684;23.356;2023-10-13T13:12:54;94712.84;;;22.16;45.01
5913;BME280;2982;42.684;23.356;2023-10-13T13:15:20;94772.38;;;22.58;45.77
5913;BME280;2982;42.684;23.356;2023-10-13T13:17:49;94698.50;;;21.88;45.29
5913;BME280;2982;42.684;23.356;2023-10-13T13:20:18;94732.56;;;22.17;45.26
5913;BME280;2982;42.684;23.356;2023-10-13T13:22:46;94841.91;;;22.87;44.79
5913;BME280;2982;42.684;23.356;2023-10-13T13:25:12;94941.56;;;23.59;43.95
5913;BME280;2982;42.684;23.356;2023-10-13T13:27:37;95062.47;;;24.18;44.96
5913;BME280;2982;42.684;23.356;2023-10-13T13:30:04;95294.47;;;25.82;45.03
5913;BME280;2982;42.684;23.356;2023-10-13T13:32:29;95274.78;;;25.71;44.69
5913;BME280;2982;42.684;23.356;2023-10-13T13:34:55;95095.94;;;24.53;45.57
5913;BME280;2982;42.684;23.356;2023-10-13T13:37:22;94725.00;;;21.90;45.01
5913;BME280;2982;42.684;23.356;2023-10-13T13:39:47;94625.47;;;21.26;46.12
5913;BME280;2982;42.684;23.356;2023-10-13T14:05:26;94634.84;;;20.84;48.82
5913;BME280;2982;42.684;23.356;2023-10-13T14:07:54;95320.94;;;25.05;50.08
5913;BME280;2982;42.684;23.356;2023-10-13T14:10:19;95294.59;;;24.99;49.72
5913;BME280;2982;42.684;23.356;2023-10-13T14:12:46;95094.41;;;23.68;50.71
5913;BME280;2982;42.684;23.356;2023-10-13T14:15:11;94724.28;;;21.10;50.37
5913;BME280;2982;42.684;23.356;2023-10-13T14:17:36;94661.66;;;20.91;50.47
5913;BME280;2982;42.684;23.356;2023-10-13T14:20:02;94692.19;;;20.95;50.82
5913;BME280;2982;42.684;23.356;2023-10-13T14:22:28;94887.75;;;22.09;51.72
5913;BME280;2982;42.684;23.356;2023-10-13T14:24:54;95286.72;;;24.75;52.70
5913;BME280;2982;42.684;23.356;2023-10-13T14:27:20;94717.38;;;20.93;52.68
5913;BME280;2982;42.684;23.356;2023-10-13T14:29:47;94688.38;;;20.82;54.17
5913;BME280;2982;42.684;23.356;2023-10-13T14:32:15;94917.13;;;22.26;54.80
5913;BME280;2982;42.684;23.356;2023-10-13T14:34:42;95070.34;;;22.91;54.28